EXS302T EGPK-EGCC
Flight info
| Callsign | EXS302T |
|---|---|
| Flight time | 0h 32m |
| Altitude | 25000 |
| Route | SUDBY Z249 OSMEG T256 DCS L612 LAKEY |
| Aircraft | A321/M-SDE3FGHIRWY/LB1 |
Departure
| Time | 2026-04-23 18:09 |
|---|---|
| Airport | Glasgow Prestwick Airport (EGPK) |
Arrival
| Time | 2026-04-23 18:41 |
|---|---|
| Airport | Manchester Airport (EGCC) |
| Time | Latitude | Longitude | Altitude | Speed | Heading |
|---|---|---|---|---|---|
| 2026-04-23 17:50 | 55.51222 | -4.61070 | 35 ft | 0 kts | 224° |
| 2026-04-23 17:57 | 55.51231 | -4.61053 | 34 ft | 2 kts | 202° |
| 2026-04-23 17:58 | 55.51242 | -4.61048 | 33 ft | 2 kts | 186° |
| 2026-04-23 17:58 | 55.51253 | -4.61047 | 32 ft | 2 kts | 182° |
| 2026-04-23 17:58 | 55.51264 | -4.61047 | 33 ft | 2 kts | 182° |
| 2026-04-23 17:58 | 55.51274 | -4.61046 | 33 ft | 2 kts | 182° |
| 2026-04-23 17:59 | 55.51286 | -4.61046 | 34 ft | 2 kts | 150° |
| 2026-04-23 17:59 | 55.51295 | -4.61059 | 33 ft | 2 kts | 126° |
| 2026-04-23 17:59 | 55.51297 | -4.61063 | 32 ft | 0 kts | 126° |
| 2026-04-23 18:00 | 55.51267 | -4.60986 | 35 ft | 23 kts | 121° |
| 2026-04-23 18:01 | 55.51226 | -4.60867 | 36 ft | 8 kts | 122° |
| 2026-04-23 18:01 | 55.51223 | -4.60859 | 36 ft | 0 kts | 123° |
| 2026-04-23 18:01 | 55.51218 | -4.60846 | 35 ft | 7 kts | 122° |
| 2026-04-23 18:01 | 55.51161 | -4.60681 | 36 ft | 20 kts | 121° |
| 2026-04-23 18:02 | 55.51120 | -4.60557 | 36 ft | 17 kts | 120° |
| 2026-04-23 18:02 | 55.51039 | -4.60319 | 39 ft | 17 kts | 122° |
| 2026-04-23 18:02 | 55.50980 | -4.60145 | 40 ft | 16 kts | 118° |
| 2026-04-23 18:02 | 55.50924 | -4.59976 | 41 ft | 16 kts | 123° |
| 2026-04-23 18:03 | 55.50862 | -4.59818 | 42 ft | 16 kts | 123° |
| 2026-04-23 18:03 | 55.50806 | -4.59659 | 41 ft | 15 kts | 120° |
| 2026-04-23 18:03 | 55.50755 | -4.59499 | 44 ft | 15 kts | 120° |
| 2026-04-23 18:03 | 55.50702 | -4.59344 | 43 ft | 15 kts | 122° |
| 2026-04-23 18:04 | 55.50648 | -4.59193 | 46 ft | 14 kts | 122° |
| 2026-04-23 18:04 | 55.50596 | -4.59044 | 47 ft | 14 kts | 121° |
| 2026-04-23 18:04 | 55.50551 | -4.58891 | 48 ft | 14 kts | 114° |
| 2026-04-23 18:04 | 55.50512 | -4.58741 | 49 ft | 13 kts | 118° |
| 2026-04-23 18:05 | 55.50468 | -4.58603 | 50 ft | 13 kts | 121° |
| 2026-04-23 18:05 | 55.50416 | -4.58456 | 51 ft | 21 kts | 122° |
| 2026-04-23 18:05 | 55.50341 | -4.58238 | 52 ft | 10 kts | 120° |
| 2026-04-23 18:05 | 55.50338 | -4.58229 | 52 ft | 0 kts | 120° |
| 2026-04-23 18:06 | 55.50322 | -4.58183 | 52 ft | 13 kts | 121° |
| 2026-04-23 18:06 | 55.50303 | -4.58133 | 53 ft | 0 kts | 123° |
| 2026-04-23 18:06 | 55.50301 | -4.58128 | 53 ft | 1 kts | 123° |
| 2026-04-23 18:06 | 55.50294 | -4.58108 | 53 ft | 6 kts | 122° |
| 2026-04-23 18:07 | 55.50277 | -4.57996 | 53 ft | 7 kts | 76° |
| 2026-04-23 18:07 | 55.50286 | -4.57971 | 53 ft | 0 kts | 46° |
| 2026-04-23 18:08 | 55.50288 | -4.57969 | 53 ft | 3 kts | 44° |
| 2026-04-23 18:08 | 55.50359 | -4.57904 | 51 ft | 11 kts | 18° |
| 2026-04-23 18:08 | 55.50492 | -4.58170 | 48 ft | 69 kts | 302° |
| 2026-04-23 18:08 | 55.50756 | -4.58934 | 49 ft | 145 kts | 302° |
| 2026-04-23 18:09 | 55.51421 | -4.60838 | 313 ft | 207 kts | 301° |
| 2026-04-23 18:09 | 55.52032 | -4.63162 | 741 ft | 201 kts | 289° |
| 2026-04-23 18:09 | 55.52580 | -4.65270 | 928 ft | 176 kts | 293° |
| 2026-04-23 18:09 | 55.52918 | -4.67382 | 1283 ft | 199 kts | 275° |
| 2026-04-23 18:10 | 55.52741 | -4.69882 | 2609 ft | 205 kts | 241° |
| 2026-04-23 18:10 | 55.51929 | -4.71906 | 3733 ft | 197 kts | 222° |
| 2026-04-23 18:10 | 55.50856 | -4.73103 | 3900 ft | 185 kts | 189° |
| 2026-04-23 18:10 | 55.49385 | -4.73186 | 4231 ft | 240 kts | 173° |
| 2026-04-23 18:11 | 55.47561 | -4.73058 | 4847 ft | 277 kts | 185° |
| 2026-04-23 18:11 | 55.45634 | -4.73610 | 6080 ft | 290 kts | 192° |
| 2026-04-23 18:11 | 55.43713 | -4.74051 | 7934 ft | 274 kts | 177° |
| 2026-04-23 18:11 | 55.41934 | -4.73029 | 9583 ft | 279 kts | 150° |
| 2026-04-23 18:12 | 55.40391 | -4.70680 | 10360 ft | 309 kts | 134° |
| 2026-04-23 18:12 | 55.39020 | -4.67632 | 11332 ft | 325 kts | 127° |
| 2026-04-23 18:12 | 55.37752 | -4.64345 | 12495 ft | 333 kts | 124° |
| 2026-04-23 18:12 | 55.36423 | -4.60947 | 13638 ft | 344 kts | 130° |
| 2026-04-23 18:13 | 55.34646 | -4.57909 | 14161 ft | 372 kts | 139° |
| 2026-04-23 18:13 | 55.32606 | -4.54800 | 14528 ft | 398 kts | 140° |
| 2026-04-23 18:13 | 55.30515 | -4.51717 | 16063 ft | 384 kts | 141° |
| 2026-04-23 18:13 | 55.28486 | -4.48747 | 17391 ft | 388 kts | 140° |
| 2026-04-23 18:14 | 55.26358 | -4.45630 | 17744 ft | 411 kts | 140° |
| 2026-04-23 18:14 | 55.24112 | -4.42330 | 18129 ft | 429 kts | 140° |
| 2026-04-23 18:14 | 55.21815 | -4.38934 | 18876 ft | 436 kts | 140° |
| 2026-04-23 18:14 | 55.19483 | -4.35478 | 19667 ft | 440 kts | 140° |
| 2026-04-23 18:15 | 55.17145 | -4.32010 | 20385 ft | 445 kts | 140° |
| 2026-04-23 18:15 | 55.14759 | -4.28472 | 21073 ft | 451 kts | 140° |
| 2026-04-23 18:15 | 55.12362 | -4.24920 | 21762 ft | 455 kts | 140° |
| 2026-04-23 18:15 | 55.09934 | -4.21320 | 22394 ft | 460 kts | 140° |
| 2026-04-23 18:16 | 55.07476 | -4.17689 | 23043 ft | 464 kts | 140° |
| 2026-04-23 18:16 | 55.05005 | -4.14053 | 23715 ft | 467 kts | 140° |
| 2026-04-23 18:16 | 55.02505 | -4.10381 | 24255 ft | 472 kts | 140° |
| 2026-04-23 18:17 | 54.97428 | -4.02966 | 25122 ft | 480 kts | 140° |
| 2026-04-23 18:17 | 54.94866 | -3.99237 | 25361 ft | 486 kts | 140° |
| 2026-04-23 18:17 | 54.92248 | -3.95431 | 25421 ft | 494 kts | 140° |
| 2026-04-23 18:17 | 54.89588 | -3.91564 | 25423 ft | 492 kts | 140° |
| 2026-04-23 18:18 | 54.87006 | -3.87809 | 25416 ft | 483 kts | 140° |
| 2026-04-23 18:18 | 54.84438 | -3.84084 | 25421 ft | 482 kts | 140° |
| 2026-04-23 18:18 | 54.81856 | -3.80349 | 25420 ft | 482 kts | 140° |
| 2026-04-23 18:18 | 54.79287 | -3.76636 | 25427 ft | 484 kts | 140° |
| 2026-04-23 18:19 | 54.76697 | -3.72895 | 25422 ft | 485 kts | 140° |
| 2026-04-23 18:19 | 54.74108 | -3.69168 | 25423 ft | 485 kts | 140° |
| 2026-04-23 18:19 | 54.71504 | -3.65425 | 25427 ft | 486 kts | 140° |
| 2026-04-23 18:19 | 54.68907 | -3.61704 | 25426 ft | 486 kts | 140° |
| 2026-04-23 18:20 | 54.66296 | -3.57970 | 25423 ft | 486 kts | 140° |
| 2026-04-23 18:20 | 54.63697 | -3.54257 | 25425 ft | 486 kts | 140° |
| 2026-04-23 18:20 | 54.61087 | -3.50535 | 25423 ft | 486 kts | 140° |
| 2026-04-23 18:20 | 54.58492 | -3.46837 | 25422 ft | 486 kts | 140° |
| 2026-04-23 18:21 | 54.55874 | -3.43112 | 25421 ft | 486 kts | 140° |
| 2026-04-23 18:21 | 54.53270 | -3.39412 | 25425 ft | 486 kts | 140° |
| 2026-04-23 18:21 | 54.50622 | -3.35802 | 25348 ft | 484 kts | 142° |
| 2026-04-23 18:21 | 54.47955 | -3.32378 | 24615 ft | 476 kts | 144° |
| 2026-04-23 18:22 | 54.45244 | -3.29087 | 24202 ft | 475 kts | 144° |
| 2026-04-23 18:22 | 54.42533 | -3.25879 | 24051 ft | 476 kts | 145° |
| 2026-04-23 18:22 | 54.39823 | -3.22671 | 23473 ft | 469 kts | 144° |
| 2026-04-23 18:22 | 54.37145 | -3.19463 | 23060 ft | 468 kts | 144° |
| 2026-04-23 18:23 | 54.35388 | -3.17335 | 22809 ft | 469 kts | 144° |
| 2026-04-23 18:23 | 54.29212 | -3.09753 | 21944 ft | 464 kts | 143° |
| 2026-04-23 18:24 | 54.24029 | -3.03372 | 21235 ft | 459 kts | 143° |
| 2026-04-23 18:24 | 54.21409 | -3.00168 | 20882 ft | 456 kts | 144° |
| 2026-04-23 18:24 | 54.18833 | -2.97037 | 20537 ft | 453 kts | 144° |
| 2026-04-23 18:25 | 54.13758 | -2.90905 | 19859 ft | 447 kts | 144° |
| 2026-04-23 18:25 | 54.11228 | -2.87846 | 19523 ft | 444 kts | 144° |
| 2026-04-23 18:25 | 54.08719 | -2.84808 | 19182 ft | 442 kts | 144° |
| 2026-04-23 18:25 | 54.06190 | -2.81747 | 18850 ft | 439 kts | 145° |
| 2026-04-23 18:26 | 54.03761 | -2.78813 | 18504 ft | 437 kts | 145° |
| 2026-04-23 18:26 | 54.01271 | -2.75813 | 17781 ft | 431 kts | 145° |
| 2026-04-23 18:26 | 53.98863 | -2.72927 | 16925 ft | 426 kts | 146° |
| 2026-04-23 18:26 | 53.96457 | -2.70048 | 16042 ft | 422 kts | 146° |
| 2026-04-23 18:27 | 53.94075 | -2.67202 | 15226 ft | 416 kts | 146° |
| 2026-04-23 18:27 | 53.91727 | -2.64398 | 14429 ft | 412 kts | 146° |
| 2026-04-23 18:27 | 53.89396 | -2.61611 | 13527 ft | 409 kts | 146° |
| 2026-04-23 18:27 | 53.87094 | -2.58858 | 12644 ft | 405 kts | 146° |
| 2026-04-23 18:28 | 53.84801 | -2.56122 | 11833 ft | 400 kts | 146° |
| 2026-04-23 18:28 | 53.82533 | -2.53425 | 11058 ft | 395 kts | 146° |
| 2026-04-23 18:28 | 53.80292 | -2.50764 | 10302 ft | 390 kts | 147° |
| 2026-04-23 18:28 | 53.78091 | -2.48149 | 9500 ft | 385 kts | 146° |
| 2026-04-23 18:29 | 53.75919 | -2.45575 | 8733 ft | 380 kts | 146° |
| 2026-04-23 18:29 | 53.73766 | -2.43027 | 7979 ft | 375 kts | 145° |
| 2026-04-23 18:29 | 53.71633 | -2.40510 | 7564 ft | 374 kts | 145° |
| 2026-04-23 18:29 | 53.69504 | -2.38001 | 7414 ft | 373 kts | 145° |
| 2026-04-23 18:30 | 53.67247 | -2.35858 | 7425 ft | 373 kts | 161° |
| 2026-04-23 18:30 | 53.64728 | -2.35302 | 7433 ft | 355 kts | 182° |
| 2026-04-23 18:30 | 53.62414 | -2.36256 | 7433 ft | 338 kts | 205° |
| 2026-04-23 18:30 | 53.60579 | -2.38524 | 7434 ft | 319 kts | 227° |
| 2026-04-23 18:31 | 53.59195 | -2.41280 | 7429 ft | 298 kts | 230° |
| 2026-04-23 18:31 | 53.57934 | -2.43886 | 7429 ft | 279 kts | 230° |
| 2026-04-23 18:31 | 53.56740 | -2.46371 | 7431 ft | 268 kts | 231° |
| 2026-04-23 18:31 | 53.55577 | -2.48796 | 7428 ft | 267 kts | 230° |
| 2026-04-23 18:32 | 53.54413 | -2.51240 | 7428 ft | 266 kts | 230° |
| 2026-04-23 18:32 | 53.53264 | -2.53638 | 7165 ft | 264 kts | 230° |
| 2026-04-23 18:32 | 53.52110 | -2.56047 | 6762 ft | 264 kts | 230° |
| 2026-04-23 18:32 | 53.50761 | -2.58041 | 6418 ft | 257 kts | 207° |
| 2026-04-23 18:33 | 53.49109 | -2.58938 | 6293 ft | 243 kts | 184° |
| 2026-04-23 18:33 | 53.47468 | -2.58821 | 6127 ft | 233 kts | 173° |
| 2026-04-23 18:33 | 53.45871 | -2.58530 | 5877 ft | 228 kts | 173° |
| 2026-04-23 18:33 | 53.44264 | -2.58229 | 5279 ft | 238 kts | 172° |
| 2026-04-23 18:34 | 53.42584 | -2.57912 | 4670 ft | 247 kts | 173° |
| 2026-04-23 18:34 | 53.40991 | -2.57615 | 4109 ft | 254 kts | 172° |
| 2026-04-23 18:34 | 53.39214 | -2.57283 | 3502 ft | 260 kts | 172° |
| 2026-04-23 18:34 | 53.37416 | -2.56950 | 3072 ft | 257 kts | 172° |
| 2026-04-23 18:35 | 53.35691 | -2.56638 | 3002 ft | 242 kts | 173° |
| 2026-04-23 18:35 | 53.34074 | -2.56348 | 3004 ft | 226 kts | 173° |
| 2026-04-23 18:35 | 53.32550 | -2.56071 | 3006 ft | 213 kts | 172° |
| 2026-04-23 18:35 | 53.31127 | -2.55812 | 3002 ft | 199 kts | 172° |
| 2026-04-23 18:36 | 53.29790 | -2.55569 | 3001 ft | 188 kts | 171° |
| 2026-04-23 18:36 | 53.28525 | -2.55340 | 2996 ft | 179 kts | 172° |
| 2026-04-23 18:36 | 53.27287 | -2.55107 | 3005 ft | 179 kts | 168° |
| 2026-04-23 18:36 | 53.26148 | -2.54378 | 3006 ft | 175 kts | 143° |
| 2026-04-23 18:37 | 53.25308 | -2.52948 | 3008 ft | 173 kts | 122° |
| 2026-04-23 18:37 | 53.24851 | -2.51055 | 2973 ft | 179 kts | 102° |
| 2026-04-23 18:37 | 53.24872 | -2.48989 | 2850 ft | 181 kts | 79° |
| 2026-04-23 18:37 | 53.25397 | -2.47116 | 2652 ft | 183 kts | 58° |
| 2026-04-23 18:38 | 53.26206 | -2.45458 | 2419 ft | 181 kts | 52° |
| 2026-04-23 18:38 | 53.26995 | -2.43842 | 2184 ft | 179 kts | 53° |
| 2026-04-23 18:38 | 53.27774 | -2.42240 | 1933 ft | 177 kts | 54° |
| 2026-04-23 18:38 | 53.28567 | -2.40601 | 1733 ft | 192 kts | 55° |
| 2026-04-23 18:39 | 53.29412 | -2.38839 | 1612 ft | 201 kts | 53° |
| 2026-04-23 18:39 | 53.30277 | -2.37118 | 1473 ft | 184 kts | 51° |
| 2026-04-23 18:39 | 53.31044 | -2.35567 | 1196 ft | 164 kts | 54° |
| 2026-04-23 18:39 | 53.31738 | -2.34139 | 837 ft | 155 kts | 53° |
| 2026-04-23 18:40 | 53.32393 | -2.32784 | 626 ft | 145 kts | 55° |
| 2026-04-23 18:40 | 53.33009 | -2.31482 | 403 ft | 140 kts | 52° |
| 2026-04-23 18:40 | 53.33597 | -2.30251 | 257 ft | 131 kts | 52° |
| 2026-04-23 18:40 | 53.34119 | -2.29164 | 231 ft | 100 kts | 51° |
| 2026-04-23 18:41 | 53.34440 | -2.28493 | 226 ft | 52 kts | 51° |
| 2026-04-23 18:41 | 53.34621 | -2.28241 | 232 ft | 23 kts | 29° |
| 2026-04-23 18:41 | 53.34743 | -2.28145 | 231 ft | 16 kts | 19° |
| 2026-04-23 18:41 | 53.34867 | -2.28060 | 229 ft | 12 kts | 34° |
| 2026-04-23 18:42 | 53.34934 | -2.27942 | 230 ft | 17 kts | 51° |
| 2026-04-23 18:42 | 53.35019 | -2.27765 | 231 ft | 26 kts | 52° |
| 2026-04-23 18:42 | 53.35127 | -2.27541 | 234 ft | 25 kts | 49° |
| 2026-04-23 18:42 | 53.35230 | -2.27329 | 239 ft | 22 kts | 47° |
| 2026-04-23 18:43 | 53.35327 | -2.27198 | 244 ft | 17 kts | 14° |
| 2026-04-23 18:43 | 53.35408 | -2.27248 | 246 ft | 15 kts | 324° |
| 2026-04-23 18:43 | 53.35472 | -2.27326 | 249 ft | 14 kts | 324° |
| 2026-04-23 18:43 | 53.35548 | -2.27427 | 247 ft | 14 kts | 321° |
| 2026-04-23 18:44 | 53.35565 | -2.27449 | 246 ft | 3 kts | 321° |
| 2026-04-23 18:44 | 53.35587 | -2.27480 | 245 ft | 6 kts | 321° |
| 2026-04-23 18:44 | 53.35610 | -2.27510 | 245 ft | 0 kts | 322° |
| 2026-04-23 18:45 | 53.35645 | -2.27556 | 246 ft | 7 kts | 321° |
| 2026-04-23 18:46 | 53.35696 | -2.27615 | 247 ft | 10 kts | 333° |
| 2026-04-23 18:46 | 53.35775 | -2.27676 | 251 ft | 13 kts | 327° |
| 2026-04-23 18:46 | 53.35851 | -2.27806 | 253 ft | 10 kts | 314° |
| 2026-04-23 18:46 | 53.35929 | -2.27851 | 255 ft | 16 kts | 351° |
| 2026-04-23 18:47 | 53.35993 | -2.27895 | 255 ft | 7 kts | 327° |
| 2026-04-23 18:47 | 53.36054 | -2.27995 | 255 ft | 13 kts | 317° |
| 2026-04-23 18:47 | 53.36133 | -2.28112 | 255 ft | 14 kts | 318° |
| 2026-04-23 18:47 | 53.36219 | -2.28125 | 255 ft | 15 kts | 27° |
| 2026-04-23 18:48 | 53.36303 | -2.28056 | 255 ft | 16 kts | 20° |
| 2026-04-23 18:48 | 53.36381 | -2.27955 | 255 ft | 7 kts | 38° |
| 2026-04-23 18:48 | 53.36428 | -2.27941 | 255 ft | 7 kts | 347° |
| 2026-04-23 18:48 | 53.36447 | -2.27980 | 255 ft | 2 kts | 247° |
| 2026-04-23 18:49 | 53.36443 | -2.27991 | 255 ft | 1 kts | 250° |
| 2026-04-23 18:49 | 53.36438 | -2.28047 | 255 ft | 3 kts | 245° |
| 2026-04-23 18:49 | 53.36432 | -2.28058 | 255 ft | 1 kts | 227° |